Time;durP1;ratioP1;P1;durP2;ratioP2;P2;SDS_P1;SDS_P2;PMS_P1;PMS_P2;Temp;Humidity;BMP_temperature;BMP_pressure;BME280_temperature;BME280_humidity;BME280_pressure;Samples;Min_cycle;Max_cycle;Signal;HPM_P1;HPM_P2
2022/09/04 00:00:12;;;;;;;0.30;0.20;;;;;;;28.12;47.31;99310.25;5104527;28;20115;-57
2022/09/04 00:03:00;;;;;;;0.40;0.30;;;;;;;28.12;47.35;99301.81;5092553;28;20531;-63
2022/09/04 00:05:49;;;;;;;0.47;0.40;;;;;;;28.12;47.16;99303.81;5101955;28;20454;-64
2022/09/04 00:08:33;;;;;;;0.32;0.30;;;;;;;28.11;47.28;99308.66;5087506;28;20052;-56
2022/09/04 00:11:04;;;;;;;0.40;0.30;;;;;;;28.11;47.21;99303.03;5085304;28;20059;-63
2022/09/04 00:13:43;;;;;;;0.30;0.30;;;;;;;28.10;47.22;99298.63;5098836;28;20055;-63
2022/09/04 00:16:16;;;;;;;0.40;0.30;;;;;;;28.10;47.26;99295.03;5088318;28;20040;-57
2022/09/04 00:19:06;;;;;;;0.40;0.25;;;;;;;28.10;47.18;99290.19;5092920;28;20050;-57
2022/09/04 00:21:47;;;;;;;0.35;0.25;;;;;;;28.11;47.16;99296.63;5102128;28;20527;-57
2022/09/04 00:24:16;;;;;;;0.30;0.20;;;;;;;28.09;47.37;99288.59;5099072;28;20095;-63
2022/09/04 00:26:56;;;;;;;0.65;0.30;;;;;;;28.11;47.22;99296.63;5100096;28;20071;-58
2022/09/04 00:29:42;;;;;;;0.30;0.30;;;;;;;28.11;47.24;99291.00;5107029;28;20051;-57
2022/09/04 00:32:40;;;;;;;0.20;0.20;;;;;;;28.09;47.16;99297.03;5100509;28;20089;-63
2022/09/04 00:35:24;;;;;;;0.20;0.20;;;;;;;28.11;47.17;99300.22;5104827;28;20047;-63
2022/09/04 00:38:25;;;;;;;0.20;0.20;;;;;;;28.10;47.26;99298.63;5107669;28;20040;-58
2022/09/04 00:41:17;;;;;;;0.50;0.30;;;;;;;28.11;47.23;99288.19;5027435;28;20099;-56
2022/09/04 00:44:00;;;;;;;0.30;0.30;;;;;;;28.10;47.36;99283.78;5026980;28;20057;-62
2022/09/04 00:46:38;;;;;;;0.25;0.20;;;;;;;28.10;47.20;99283.78;5027771;28;20096;-63
2022/09/04 00:49:10;;;;;;;0.40;0.25;;;;;;;28.09;47.36;99279.38;5027810;28;20061;-57
2022/09/04 00:52:06;;;;;;;0.40;0.30;;;;;;;28.09;47.28;99288.59;5027923;28;20079;-57
2022/09/04 00:55:14;;;;;;;0.40;0.30;;;;;;;28.10;47.20;99278.94;5027258;28;20057;-57
2022/09/04 00:57:49;;;;;;;0.50;0.40;;;;;;;28.11;47.17;99276.94;5027231;28;20058;-57
2022/09/04 01:00:20;;;;;;;0.52;0.40;;;;;;;28.10;47.15;99266.91;5038295;28;20046;-57
2022/09/04 01:03:29;;;;;;;0.30;0.30;;;;;;;28.08;47.08;99274.97;5025250;28;20041;-57
2022/09/04 01:06:17;;;;;;;0.22;0.22;;;;;;;28.08;46.99;99272.97;5017105;28;20045;-57
2022/09/04 01:09:04;;;;;;;0.32;0.20;;;;;;;28.09;46.90;99271.75;5024484;28;20045;-63
2022/09/04 01:11:42;;;;;;;0.20;0.20;;;;;;;28.07;46.92;99268.53;5022239;28;20088;-57
2022/09/04 01:14:17;;;;;;;0.20;0.20;;;;;;;28.06;47.00;99266.16;5024573;28;20546;-57
2022/09/04 01:16:58;;;;;;;0.30;0.30;;;;;;;28.03;46.91;99267.81;5028325;28;20050;-63
2022/09/04 01:19:49;;;;;;;0.52;0.30;;;;;;;28.07;47.03;99273.38;5105423;28;20044;-63
2022/09/04 01:22:28;;;;;;;0.20;0.20;;;;;;;28.07;47.03;99279.00;5115157;28;20480;-63
2022/09/04 01:25:15;;;;;;;0.25;0.25;;;;;;;28.06;47.02;99278.19;5100564;28;20522;-63
2022/09/04 01:28:03;;;;;;;1.08;0.32;;;;;;;28.06;47.11;99278.19;5093963;28;20070;-63
2022/09/04 01:30:35;;;;;;;0.25;0.25;;;;;;;28.04;46.97;99277.03;5085150;28;20126;-57
2022/09/04 01:33:21;;;;;;;0.50;0.40;;;;;;;28.05;47.05;99284.25;5091572;28;20047;-57
2022/09/04 01:35:54;;;;;;;0.35;0.30;;;;;;;28.05;47.02;99282.25;5105676;28;20039;-57
2022/09/04 01:38:38;;;;;;;0.20;0.20;;;;;;;28.06;47.03;99277.41;5100384;28;20127;-63
2022/09/04 01:41:17;;;;;;;0.43;0.30;;;;;;;28.06;46.92;99280.22;5086522;28;20040;-63
2022/09/04 01:43:43;;;;;;;0.45;0.40;;;;;;;28.06;46.99;99285.84;5094302;28;20479;-57
2022/09/04 01:46:20;;;;;;;0.30;0.30;;;;;;;28.06;46.95;99288.66;5089375;28;20040;-57
2022/09/04 01:48:57;;;;;;;0.55;0.30;;;;;;;28.03;46.88;99287.50;5095626;28;20063;-63
2022/09/04 01:51:25;;;;;;;0.60;0.40;;;;;;;28.07;47.01;99284.63;5101250;28;20039;-63
2022/09/04 01:54:17;;;;;;;0.30;0.30;;;;;;;28.07;46.94;99290.25;5107854;28;20044;-63
2022/09/04 01:57:07;;;;;;;0.30;0.30;;;;;;;28.08;46.93;99289.03;5097820;28;20102;-57
2022/09/04 01:59:42;;;;;;;0.45;0.38;;;;;;;28.06;46.93;99294.28;5090673;28;20082;-63
2022/09/04 02:02:21;;;;;;;0.20;0.20;;;;;;;28.06;47.15;99299.91;5111784;28;20449;-57
2022/09/04 02:04:52;;;;;;;0.38;0.35;;;;;;;28.07;47.01;99293.06;5096241;28;20048;-63
2022/09/04 02:07:40;;;;;;;0.32;0.30;;;;;;;28.06;46.94;99288.66;5086053;28;20052;-57
2022/09/04 02:10:28;;;;;;;0.40;0.40;;;;;;;28.06;46.88;99288.66;5092519;28;20055;-57
2022/09/04 02:13:21;;;;;;;0.20;0.20;;;;;;;28.07;46.92;99298.69;5091226;28;20044;-57
2022/09/04 02:16:08;;;;;;;0.40;0.30;;;;;;;28.06;46.97;99292.25;5094052;28;20036;-63
2022/09/04 02:18:36;;;;;;;0.50;0.22;;;;;;;28.06;46.88;99295.06;5106113;28;20044;-63
2022/09/04 02:21:10;;;;;;;0.30;0.30;;;;;;;28.06;47.00;99295.06;5089079;28;20102;-63
2022/09/04 02:23:43;;;;;;;0.40;0.30;;;;;;;28.04;46.98;99291.09;5091437;28;20047;-57
2022/09/04 02:26:46;;;;;;;0.30;0.22;;;;;;;28.05;46.95;99287.88;5089143;28;20589;-63
2022/09/04 02:29:24;;;;;;;0.50;0.40;;;;;;;28.06;46.83;99288.66;5093405;28;20044;-57
2022/09/04 02:31:58;;;;;;;0.38;0.28;;;;;;;28.02;47.15;99290.75;5108797;28;20051;-57
2022/09/04 02:34:27;;;;;;;0.30;0.30;;;;;;;28.06;47.15;99285.84;5111033;28;20527;-57
2022/09/04 02:37:20;;;;;;;0.30;0.30;;;;;;;28.04;47.08;99297.53;5100459;28;20506;-63
2022/09/04 02:40:10;;;;;;;0.35;0.30;;;;;;;28.05;46.98;99301.13;5098459;28;20096;-63
2022/09/04 02:42:51;;;;;;;0.30;0.20;;;;;;;28.04;46.89;99297.53;5093663;28;20051;-63
2022/09/04 02:45:33;;;;;;;0.20;0.20;;;;;;;28.04;46.96;99302.34;5088796;28;20056;-62
2022/09/04 02:48:26;;;;;;;0.28;0.25;;;;;;;28.05;47.02;99299.09;5097163;28;20031;-63
2022/09/04 02:50:54;;;;;;;0.32;0.30;;;;;;;28.05;46.82;99303.94;5104275;28;20040;-63
2022/09/04 02:53:40;;;;;;;0.40;0.30;;;;;;;28.02;46.89;99310.44;5091287;28;20051;-63
2022/09/04 02:56:12;;;;;;;0.15;0.15;;;;;;;28.04;46.87;99305.16;5095459;28;20047;-57
2022/09/04 02:59:07;;;;;;;1.95;0.20;;;;;;;28.03;46.83;99307.19;5098923;28;20072;-62
2022/09/04 03:01:56;;;;;;;0.20;0.20;;;;;;;28.03;46.86;99301.56;5102369;28;20166;-57
2022/09/04 03:04:32;;;;;;;0.20;0.20;;;;;;;28.02;46.75;99305.59;5093222;28;20088;-62
2022/09/04 03:07:08;;;;;;;0.30;0.20;;;;;;;28.02;46.80;99304.81;5086278;28;20044;-57
2022/09/04 03:09:49;;;;;;;0.40;0.40;;;;;;;28.01;46.77;99306.81;5098151;28;20139;-57
2022/09/04 03:12:28;;;;;;;0.40;0.30;;;;;;;28.00;46.96;99301.59;5088542;28;20051;-57
2022/09/04 03:15:27;;;;;;;0.22;0.22;;;;;;;28.01;46.85;99297.59;5113646;28;20039;-57
2022/09/04 03:17:52;;;;;;;0.20;0.20;;;;;;;28.03;46.88;99306.41;5074929;28;20415;-63
2022/09/04 03:20:43;;;;;;;0.35;0.30;;;;;;;28.00;46.96;99310.84;5101752;28;20542;-63
2022/09/04 03:23:17;;;;;;;0.30;0.30;;;;;;;28.01;46.75;99304.00;5089368;28;20415;-63
2022/09/04 03:26:18;;;;;;;0.52;0.30;;;;;;;28.02;46.78;99310.44;5091042;28;20071;-57
2022/09/04 03:28:49;;;;;;;0.20;0.20;;;;;;;28.04;46.64;99305.16;5058579;28;20448;-57
2022/09/04 03:31:36;;;;;;;0.30;0.30;;;;;;;28.02;46.74;99299.19;5105802;28;20152;-63
2022/09/04 03:34:08;;;;;;;0.30;0.30;;;;;;;28.02;46.79;99305.59;5082689;28;20041;-63
2022/09/04 03:36:47;;;;;;;0.20;0.20;;;;;;;28.00;46.85;99301.59;5103399;28;20050;-57
2022/09/04 03:39:29;;;;;;;0.28;0.28;;;;;;;27.97;46.37;99304.06;5102486;28;20047;-63
2022/09/04 03:41:58;;;;;;;0.25;0.20;;;;;;;28.02;46.64;99308.41;5094434;28;20052;-56
2022/09/04 03:45:01;;;;;;;0.55;0.38;;;;;;;27.98;46.71;99302.03;5087006;28;20146;-64
2022/09/04 03:47:32;;;;;;;0.30;0.20;;;;;;;28.03;46.74;99314.81;5034921;28;20040;-63
2022/09/04 03:50:08;;;;;;;0.93;0.30;;;;;;;28.01;46.53;99308.84;5100434;28;20447;-57
2022/09/04 03:52:47;;;;;;;0.30;0.30;;;;;;;27.99;46.58;99309.25;5086443;28;20040;-57
2022/09/04 03:55:27;;;;;;;0.20;0.20;;;;;;;27.99;46.51;99312.06;5101448;28;20036;-63
2022/09/04 03:58:04;;;;;;;1.27;0.40;;;;;;;28.00;46.53;99302.41;5098945;28;20093;-63
2022/09/04 04:00:45;;;;;;;0.30;0.30;;;;;;;27.97;46.50;99306.88;5087786;28;20046;-63
2022/09/04 04:03:29;;;;;;;0.28;0.20;;;;;;;27.98;46.31;99302.03;5092176;28;20516;-62
2022/09/04 04:06:15;;;;;;;0.30;0.20;;;;;;;27.97;46.37;99306.06;5109037;28;20408;-57
2022/09/04 04:08:57;;;;;;;0.40;0.30;;;;;;;27.93;46.46;99294.91;5091362;28;20078;-57
2022/09/04 04:11:49;;;;;;;0.47;0.38;;;;;;;27.97;46.32;99301.25;5099353;28;20051;-57
2022/09/04 04:14:58;;;;;;;0.32;0.30;;;;;;;27.97;46.04;99301.25;5095639;28;20035;-57
2022/09/04 04:17:51;;;;;;;0.20;0.20;;;;;;;27.98;46.17;99305.66;5023767;28;20151;-57
2022/09/04 04:20:43;;;;;;;0.10;0.10;;;;;;;27.97;46.26;99309.69;5025814;28;20053;-63
2022/09/04 04:23:32;;;;;;;0.63;0.40;;;;;;;27.98;46.05;99316.09;5026541;28;20049;-62
2022/09/04 04:26:09;;;;;;;0.40;0.35;;;;;;;27.96;46.19;99310.13;5023532;28;20496;-63
2022/09/04 04:29:02;;;;;;;0.47;0.30;;;;;;;27.94;46.18;99316.16;5019889;28;20469;-63
2022/09/04 04:32:09;;;;;;;0.75;0.40;;;;;;;27.94;46.13;99318.97;5024030;28;20045;-63
2022/09/04 04:34:43;;;;;;;0.30;0.30;;;;;;;27.95;46.08;99326.19;5023221;28;20053;-63
2022/09/04 04:37:25;;;;;;;0.30;0.30;;;;;;;27.94;46.07;99333.03;5023759;28;20169;-63
2022/09/04 04:40:07;;;;;;;0.25;0.25;;;;;;;27.93;45.82;99325.81;5028497;28;20132;-57
2022/09/04 04:42:32;;;;;;;;;;;;;;;28.01;45.84;99329.31;5026750;28;20080;-63
2022/09/04 04:48:09;;;;;;;0.22;0.22;;;;;;;27.95;45.97;99337.44;5021676;28;20064;-57
2022/09/04 04:50:48;;;;;;;0.20;0.20;;;;;;;27.91;45.85;99333.88;5024275;28;20126;-63
2022/09/04 04:53:45;;;;;;;0.40;0.32;;;;;;;27.92;45.80;99338.28;5026469;28;20061;-63
2022/09/04 04:56:48;;;;;;;0.32;0.30;;;;;;;27.93;45.91;99342.69;5087299;28;20110;-57
2022/09/04 04:59:19;;;;;;;;;;;;;;;27.99;45.71;99334.56;5022561;28;20434;-63
2022/09/04 05:01:59;;;;;;;0.30;0.30;;;;;;;27.95;45.79;99340.25;5023295;28;19925;-57
2022/09/04 05:04:40;;;;;;;0.30;0.30;;;;;;;27.90;45.65;99332.28;5027190;28;20143;-57
2022/09/04 05:07:11;;;;;;;0.20;0.20;;;;;;;27.92;45.88;99343.09;5023931;28;20157;-57
2022/09/04 05:09:55;;;;;;;0.77;0.30;;;;;;;27.89;45.69;99339.13;5033184;28;20128;-56
2022/09/04 05:12:48;;;;;;;0.30;0.30;;;;;;;27.90;45.83;99349.16;5030395;28;20133;-57
2022/09/04 05:15:23;;;;;;;;;;;;;;;27.97;45.57;99345.44;5027779;28;20305;-63
2022/09/04 05:17:53;;;;;;;0.20;0.20;;;;;;;27.94;45.55;99349.91;5032460;28;20646;-62
2022/09/04 05:20:21;;;;;;;0.50;0.30;;;;;;;27.92;45.79;99357.94;5027536;28;20148;-57
2022/09/04 05:22:52;;;;;;;0.40;0.35;;;;;;;27.90;45.69;99357.59;5025247;28;20468;-57
2022/09/04 05:25:32;;;;;;;0.30;0.30;;;;;;;27.89;45.81;99358.81;5023838;28;20057;-63
2022/09/04 05:28:19;;;;;;;0.30;0.30;;;;;;;27.90;45.99;99362.41;5033690;28;20033;-62
2022/09/04 05:31:09;;;;;;;0.32;0.30;;;;;;;27.92;45.70;99369.19;5027444;28;20053;-57
2022/09/04 05:33:40;;;;;;;0.30;0.25;;;;;;;27.92;45.76;99359.97;5053491;28;20085;-62
2022/09/04 05:36:18;;;;;;;0.35;0.35;;;;;;;27.92;46.10;99360.75;5095576;28;20048;-57
2022/09/04 05:38:54;;;;;;;0.20;0.20;;;;;;;27.89;45.76;99364.44;5095902;28;20472;-63
2022/09/04 05:41:47;;;;;;;0.28;0.28;;;;;;;27.89;45.72;99364.44;5087633;28;20415;-63
2022/09/04 05:44:47;;;;;;;0.68;0.30;;;;;;;27.89;45.76;99367.25;5095046;28;20039;-57
2022/09/04 05:47:49;;;;;;;0.20;0.20;;;;;;;27.89;45.83;99375.69;5098979;28;20518;-63
2022/09/04 05:50:30;;;;;;;0.20;0.20;;;;;;;27.90;45.80;99380.06;5113667;28;20677;-63
2022/09/04 05:53:07;;;;;;;0.30;0.30;;;;;;;27.88;45.90;99374.09;5099343;28;20126;-63
2022/09/04 05:55:41;;;;;;;0.35;0.30;;;;;;;27.88;46.18;99382.53;5090500;28;20048;-57
2022/09/04 05:58:24;;;;;;;0.30;0.30;;;;;;;27.89;45.97;99383.31;5103620;28;20589;-63
2022/09/04 06:01:14;;;;;;;0.30;0.30;;;;;;;27.90;46.16;99387.72;5108818;28;20047;-57
2022/09/04 06:04:17;;;;;;;0.20;0.20;;;;;;;27.90;46.04;99387.72;5103802;28;20437;-57
2022/09/04 06:07:26;;;;;;;0.30;0.30;;;;;;;27.87;46.26;99383.75;5084181;28;20053;-57
2022/09/04 06:10:16;;;;;;;0.30;0.30;;;;;;;27.90;46.23;99390.53;5091789;28;20120;-63
2022/09/04 06:13:09;;;;;;;0.20;0.20;;;;;;;27.90;46.20;99391.31;5100990;28;20071;-63
2022/09/04 06:15:46;;;;;;;0.22;0.20;;;;;;;27.92;46.01;99396.50;5100425;28;20126;-57
2022/09/04 06:18:17;;;;;;;0.30;0.30;;;;;;;27.92;46.16;99396.50;5100426;28;20062;-63
2022/09/04 06:20:49;;;;;;;0.30;0.30;;;;;;;27.90;46.26;99394.13;5082355;28;20070;-62
2022/09/04 06:23:50;;;;;;;0.47;0.45;;;;;;;27.92;46.14;99405.75;5086447;28;20063;-57
2022/09/04 06:26:30;;;;;;;0.30;0.30;;;;;;;27.92;46.24;99404.94;5050844;28;20063;-57
2022/09/04 06:29:14;;;;;;;0.20;0.20;;;;;;;27.92;46.26;99400.13;5066012;28;20048;-57
2022/09/04 06:32:16;;;;;;;0.47;0.40;;;;;;;27.92;46.51;99407.75;5050069;28;20060;-57
2022/09/04 06:35:00;;;;;;;0.30;0.30;;;;;;;27.96;46.42;99409.31;5053304;28;20036;-63
2022/09/04 06:38:00;;;;;;;0.30;0.30;;;;;;;27.94;46.55;99406.13;5060259;28;20147;-57
2022/09/04 06:40:33;;;;;;;0.30;0.30;;;;;;;27.94;46.52;99406.13;5031865;28;20067;-57
2022/09/04 06:43:14;;;;;;;0.35;0.35;;;;;;;27.94;46.58;99408.16;5053943;28;20117;-63
2022/09/04 06:45:57;;;;;;;0.30;0.30;;;;;;;27.93;46.54;99410.16;5054551;28;20044;-57
2022/09/04 06:48:44;;;;;;;0.22;0.20;;;;;;;27.92;46.48;99410.56;5065349;28;20106;-57
2022/09/04 06:51:20;;;;;;;0.30;0.30;;;;;;;27.96;46.56;99408.50;5042707;28;20033;-63
2022/09/04 06:53:58;;;;;;;0.30;0.30;;;;;;;27.95;46.60;99418.19;5062283;28;20135;-63
2022/09/04 06:56:42;;;;;;;0.40;0.40;;;;;;;27.94;46.64;99406.13;5059210;28;20524;-57
2022/09/04 06:59:23;;;;;;;0.40;0.30;;;;;;;27.98;46.58;99406.06;5056538;28;20060;-57
2022/09/04 07:01:52;;;;;;;0.30;0.30;;;;;;;27.96;46.60;99406.50;5093346;28;20049;-63
2022/09/04 07:04:37;;;;;;;0.40;0.40;;;;;;;27.97;46.80;99401.66;5102202;28;20504;-63
2022/09/04 07:07:20;;;;;;;0.40;0.30;;;;;;;27.97;46.87;99408.09;5084639;28;20055;-57
2022/09/04 07:09:53;;;;;;;0.40;0.30;;;;;;;27.96;46.63;99403.69;5105416;28;20056;-57
2022/09/04 07:12:24;;;;;;;0.35;0.32;;;;;;;27.97;46.75;99422.16;5107643;28;20499;-57
2022/09/04 07:15:27;;;;;;;0.40;0.30;;;;;;;27.97;46.80;99405.28;5105151;28;20065;-63
2022/09/04 07:18:26;;;;;;;0.73;0.40;;;;;;;27.98;46.88;99406.84;5099897;28;20028;-57
2022/09/04 07:21:01;;;;;;;0.43;0.43;;;;;;;28.01;47.00;99401.63;5082808;28;20037;-57
2022/09/04 07:23:39;;;;;;;0.40;0.40;;;;;;;27.98;46.99;99409.69;5097574;28;20051;-63
2022/09/04 07:26:07;;;;;;;0.30;0.30;;;;;;;28.02;46.97;99404.00;5090079;28;20048;-57
2022/09/04 07:28:35;;;;;;;0.40;0.30;;;;;;;27.98;46.94;99404.06;5096638;28;20059;-57
2022/09/04 07:31:11;;;;;;;0.50;0.40;;;;;;;28.00;47.11;99411.25;5097045;28;20032;-63
2022/09/04 07:34:06;;;;;;;0.40;0.40;;;;;;;28.00;47.07;99414.88;5084389;28;20041;-57
2022/09/04 07:37:01;;;;;;;0.50;0.47;;;;;;;28.03;46.94;99410.44;5097765;28;20385;-57
2022/09/04 07:39:47;;;;;;;0.38;0.38;;;;;;;28.01;47.00;99413.66;5108757;28;20039;-62
2022/09/04 07:42:26;;;;;;;0.30;0.30;;;;;;;28.03;46.82;99413.25;5116452;28;20036;-57
2022/09/04 07:44:58;;;;;;;0.63;0.40;;;;;;;28.05;46.85;99419.22;5106774;28;20044;-57
2022/09/04 07:47:35;;;;;;;0.30;0.30;;;;;;;28.03;46.89;99424.50;5094096;28;20388;-63
2022/09/04 07:50:09;;;;;;;0.75;0.45;;;;;;;28.04;46.93;99420.44;5096455;28;20418;-57
2022/09/04 07:52:50;;;;;;;0.70;0.50;;;;;;;28.05;46.89;99428.47;5110021;28;20043;-62
2022/09/04 07:55:39;;;;;;;0.30;0.30;;;;;;;28.06;46.93;99432.06;5086806;28;20077;-63
2022/09/04 07:58:36;;;;;;;0.65;0.40;;;;;;;28.06;47.03;99437.69;5101170;28;20080;-57
2022/09/04 08:01:35;;;;;;;0.30;0.30;;;;;;;28.06;47.02;99444.09;5098404;28;20071;-56
2022/09/04 08:04:21;;;;;;;0.40;0.40;;;;;;;28.07;46.92;99433.66;5100576;28;20034;-63
2022/09/04 08:06:52;;;;;;;1.48;0.40;;;;;;;28.08;46.80;99449.31;5094041;28;20045;-63
2022/09/04 08:09:42;;;;;;;0.38;0.30;;;;;;;28.07;46.87;99437.25;5102528;28;20048;-63
2022/09/04 08:12:35;;;;;;;0.30;0.30;;;;;;;28.07;46.83;99437.25;5082684;28;20125;-63
2022/09/04 08:15:11;;;;;;;0.43;0.30;;;;;;;28.08;46.91;99443.69;5101840;28;20055;-57
2022/09/04 08:18:21;;;;;;;0.52;0.38;;;;;;;28.08;46.99;99430.44;5090022;28;20033;-63
2022/09/04 08:20:50;;;;;;;0.38;0.38;;;;;;;28.09;47.05;99434.84;5023422;28;20595;-63
2022/09/04 08:23:18;;;;;;;0.40;0.40;;;;;;;28.10;46.96;99441.25;5011648;28;20517;-63
2022/09/04 08:25:49;;;;;;;0.40;0.40;;;;;;;28.09;47.08;99439.66;5009945;28;20046;-57
2022/09/04 08:28:33;;;;;;;0.50;0.50;;;;;;;28.11;47.04;99448.47;5028484;28;20054;-63
2022/09/04 08:31:10;;;;;;;0.40;0.40;;;;;;;28.11;47.13;99445.66;5024043;28;20076;-63
2022/09/04 08:34:10;;;;;;;0.40;0.40;;;;;;;28.14;47.02;99453.22;5006362;28;20045;-63
2022/09/04 08:37:00;;;;;;;0.55;0.47;;;;;;;28.15;46.95;99450.03;4947397;28;20059;-57
2022/09/04 08:39:50;;;;;;;0.93;0.50;;;;;;;28.17;46.86;99455.22;4949951;28;20090;-63
2022/09/04 08:42:33;;;;;;;0.70;0.45;;;;;;;28.16;47.04;99453.63;4949362;28;20055;-63
2022/09/04 08:45:23;;;;;;;0.75;0.50;;;;;;;28.15;47.03;99444.41;4945827;28;20544;-63
2022/09/04 08:48:41;;;;;;;0.40;0.40;;;;;;;28.16;47.11;99448.00;4950085;28;20063;-57
2022/09/04 08:51:06;;;;;;;0.40;0.40;;;;;;;28.18;47.17;99442.75;4948651;29;20051;-63
2022/09/04 08:53:51;;;;;;;0.70;0.45;;;;;;;28.17;47.07;99444.75;4946053;29;20047;-63
2022/09/04 08:56:27;;;;;;;0.40;0.40;;;;;;;28.18;47.19;99448.34;5006200;28;20454;-57
2022/09/04 08:59:16;;;;;;;0.40;0.40;;;;;;;28.17;47.05;99450.38;5007707;28;20092;-57
2022/09/04 09:02:05;;;;;;;0.73;0.50;;;;;;;28.19;47.00;99449.94;5004504;28;20050;-62
2022/09/04 09:05:01;;;;;;;0.35;0.32;;;;;;;28.19;46.98;99439.50;5007724;28;20050;-63
2022/09/04 09:07:40;;;;;;;0.70;0.60;;;;;;;28.18;46.92;99425.84;5005990;28;20080;-57
2022/09/04 09:10:09;;;;;;;0.50;0.40;;;;;;;28.20;46.99;99429.84;5017838;28;20047;-57
2022/09/04 09:12:59;;;;;;;0.63;0.50;;;;;;;28.21;46.88;99437.03;5089328;28;20075;-63
2022/09/04 09:15:50;;;;;;;0.90;0.60;;;;;;;28.21;46.92;99434.22;5088388;28;20059;-63
2022/09/04 09:18:32;;;;;;;0.60;0.47;;;;;;;28.22;47.15;99437.88;5085684;28;20499;-63
2022/09/04 09:21:19;;;;;;;0.52;0.50;;;;;;;28.22;47.13;99430.22;5085915;28;20036;-57
2022/09/04 09:24:22;;;;;;;0.80;0.60;;;;;;;28.24;46.99;99429.78;5097483;28;20055;-57
2022/09/04 09:27:10;;;;;;;0.50;0.40;;;;;;;28.25;46.80;99429.34;5063309;28;20040;-63
2022/09/04 09:29:59;;;;;;;0.47;0.40;;;;;;;28.27;46.81;99423.31;5110354;28;20023;-56
2022/09/04 09:32:40;;;;;;;0.77;0.60;;;;;;;28.26;46.81;99421.72;5094654;28;20043;-63
2022/09/04 09:35:11;;;;;;;0.73;0.50;;;;;;;28.25;46.83;99420.13;5088484;28;20511;-63
2022/09/04 09:38:13;;;;;;;0.70;0.50;;;;;;;28.25;46.80;99423.72;5106810;28;20815;-63
2022/09/04 09:40:38;;;;;;;0.43;0.40;;;;;;;28.30;46.63;99421.66;5094066;28;20051;-56
2022/09/04 09:43:12;;;;;;;0.85;0.55;;;;;;;28.27;46.80;99412.03;5101277;28;20100;-56
2022/09/04 09:46:19;;;;;;;0.50;0.47;;;;;;;28.31;46.62;99417.66;5102577;28;20513;-56
2022/09/04 09:49:14;;;;;;;0.68;0.52;;;;;;;28.32;46.55;99417.22;5096440;28;20050;-56
2022/09/04 09:52:07;;;;;;;0.85;0.55;;;;;;;28.33;46.59;99415.22;5042408;28;20764;-56
2022/09/04 09:54:57;;;;;;;0.52;0.50;;;;;;;28.33;46.66;99415.22;5041307;28;20049;-63
2022/09/04 09:57:22;;;;;;;0.85;0.63;;;;;;;28.32;46.61;99411.59;5024023;28;20049;-57
2022/09/04 10:00:14;;;;;;;0.90;0.60;;;;;;;28.33;46.64;99407.56;5040089;28;20051;-56
2022/09/04 10:03:00;;;;;;;0.57;0.50;;;;;;;28.33;46.51;99410.38;5046463;28;20056;-57
2022/09/04 10:05:56;;;;;;;0.80;0.60;;;;;;;28.33;46.57;99404.75;5059777;28;20060;-63
2022/09/04 10:08:55;;;;;;;0.77;0.52;;;;;;;28.37;46.30;99405.50;5046885;28;20049;-64
2022/09/04 10:11:35;;;;;;;0.60;0.57;;;;;;;28.38;46.46;99409.09;5053072;28;20056;-57
2022/09/04 10:14:34;;;;;;;0.50;0.50;;;;;;;28.38;46.35;99404.28;5049092;28;20044;-63
2022/09/04 10:17:36;;;;;;;0.60;0.40;;;;;;;28.39;46.36;99403.06;5029888;28;20413;-63
2022/09/04 10:20:20;;;;;;;0.88;0.60;;;;;;;28.41;46.37;99406.22;5036092;28;20052;-56
2022/09/04 10:23:09;;;;;;;0.57;0.40;;;;;;;28.40;46.31;99403.84;5043870;28;20394;-63
2022/09/04 10:26:12;;;;;;;0.70;0.50;;;;;;;28.43;46.30;99412.25;5044354;28;20555;-62
2022/09/04 10:28:38;;;;;;;0.40;0.40;;;;;;;28.44;46.29;99411.00;5072020;28;20393;-57
2022/09/04 10:31:22;;;;;;;0.52;0.45;;;;;;;28.45;46.17;99406.19;5094887;28;20493;-57
2022/09/04 10:34:09;;;;;;;0.57;0.43;;;;;;;28.45;46.29;99398.53;5114677;28;20039;-63
2022/09/04 10:37:08;;;;;;;0.70;0.50;;;;;;;28.46;46.09;99391.66;5089762;28;20052;-58
2022/09/04 10:43:00;;;;;;;0.50;0.40;;;;;;;28.47;46.07;99386.84;5102509;28;20108;-56
2022/09/04 10:45:29;;;;;;;0.68;0.50;;;;;;;28.47;45.93;99384.03;5059042;28;20060;-63
2022/09/04 10:48:19;;;;;;;0.88;0.57;;;;;;;28.48;45.87;99389.22;5099915;28;20101;-57
2022/09/04 10:51:04;;;;;;;0.45;0.40;;;;;;;28.49;46.00;99390.81;5083326;28;20530;-63
2022/09/04 10:53:51;;;;;;;0.57;0.50;;;;;;;28.50;45.73;99381.16;5081785;28;20058;-63
2022/09/04 10:56:25;;;;;;;0.65;0.50;;;;;;;28.50;45.70;99383.16;5098077;28;20032;-63
2022/09/04 10:59:08;;;;;;;0.65;0.50;;;;;;;28.52;45.81;99378.72;5093655;28;20027;-56
2022/09/04 11:01:51;;;;;;;0.50;0.47;;;;;;;28.53;45.95;99379.50;5099723;28;20071;-57
2022/09/04 11:04:30;;;;;;;0.70;0.60;;;;;;;28.54;45.60;99377.47;5099450;28;20126;-57
2022/09/04 11:07:20;;;;;;;0.80;0.60;;;;;;;28.55;45.66;99370.63;5101041;28;20028;-63
2022/09/04 11:09:48;;;;;;;0.90;0.60;;;;;;;28.54;45.57;99364.22;5091251;28;20063;-56
2022/09/04 11:12:35;;;;;;;1.10;0.73;;;;;;;28.55;45.92;99373.44;5110481;28;20046;-63
2022/09/04 11:15:21;;;;;;;1.27;0.60;;;;;;;28.54;45.52;99366.22;5111987;28;20115;-63
2022/09/04 11:18:02;;;;;;;0.98;0.70;;;;;;;28.57;45.55;99368.16;5094261;28;20044;-56
2022/09/04 11:20:43;;;;;;;0.65;0.50;;;;;;;28.58;45.57;99364.16;5092125;28;20131;-63
2022/09/04 11:23:48;;;;;;;0.57;0.52;;;;;;;28.60;45.54;99365.31;5087805;28;20048;-63
2022/09/04 11:26:32;;;;;;;0.88;0.60;;;;;;;28.61;45.56;99363.28;5093458;28;20043;-63
2022/09/04 11:29:39;;;;;;;0.80;0.50;;;;;;;28.60;45.71;99361.69;5105715;28;20522;-63
2022/09/04 11:32:30;;;;;;;0.50;0.50;;;;;;;28.61;45.60;99352.03;5109247;28;20066;-56
2022/09/04 11:35:35;;;;;;;0.47;0.43;;;;;;;28.60;45.63;99345.59;5094904;28;20046;-57
2022/09/04 11:38:09;;;;;;;0.50;0.50;;;;;;;28.62;45.63;99350.78;5100124;28;20048;-63
2022/09/04 11:41:14;;;;;;;0.80;0.60;;;;;;;28.62;45.86;99347.97;5103809;28;20059;-63
2022/09/04 11:44:24;;;;;;;0.68;0.50;;;;;;;28.62;45.94;99339.53;5100713;28;20052;-63
2022/09/04 11:46:58;;;;;;;0.60;0.50;;;;;;;28.62;45.75;99340.34;5099736;28;20097;-63
2022/09/04 11:49:41;;;;;;;1.08;0.60;;;;;;;28.62;45.75;99328.28;5100812;28;20110;-56
2022/09/04 11:52:34;;;;;;;0.52;0.50;;;;;;;28.64;45.71;99334.25;5098031;28;20403;-63
2022/09/04 11:55:15;;;;;;;0.82;0.63;;;;;;;28.66;45.80;99332.63;5092157;28;20044;-63
2022/09/04 11:58:13;;;;;;;0.60;0.50;;;;;;;28.69;45.69;99325.34;5089271;28;20044;-56
2022/09/04 12:00:58;;;;;;;0.90;0.60;;;;;;;28.69;45.64;99330.97;5089691;28;20063;-63
2022/09/04 12:03:45;;;;;;;0.82;0.60;;;;;;;28.69;45.88;99314.06;5101067;28;20464;-64
2022/09/04 12:06:52;;;;;;;0.75;0.60;;;;;;;28.69;45.86;99308.44;5106796;28;20043;-57
2022/09/04 12:09:21;;;;;;;0.63;0.50;;;;;;;28.69;45.87;99302.81;5104804;28;20071;-57
2022/09/04 12:11:49;;;;;;;0.40;0.40;;;;;;;28.70;45.88;99301.59;5094520;28;20457;-63
2022/09/04 12:15:00;;;;;;;0.90;0.63;;;;;;;28.69;45.93;99297.19;5108686;28;20051;-63
2022/09/04 12:17:55;;;;;;;1.00;0.60;;;;;;;28.71;45.69;99297.53;5098802;28;20040;-64
2022/09/04 12:20:48;;;;;;;1.00;0.60;;;;;;;28.73;46.08;99309.97;5092279;28;20064;-56
2022/09/04 12:23:22;;;;;;;0.70;0.50;;;;;;;28.72;46.18;99314.03;5105377;28;20126;-64
2022/09/04 12:26:25;;;;;;;0.63;0.60;;;;;;;28.72;46.16;99313.19;5117389;28;20048;-57
2022/09/04 12:28:56;;;;;;;0.57;0.50;;;;;;;28.73;46.09;99309.97;5105488;28;20075;-63
2022/09/04 12:32:01;;;;;;;0.73;0.50;;;;;;;28.75;46.16;99306.72;5089591;28;20424;-64
2022/09/04 12:34:36;;;;;;;0.70;0.60;;;;;;;28.77;46.15;99307.88;5091287;28;20469;-63
2022/09/04 12:37:26;;;;;;;0.50;0.50;;;;;;;28.77;46.19;99310.69;5103278;28;20040;-56
2022/09/04 12:40:31;;;;;;;0.93;0.60;;;;;;;28.78;46.17;99305.84;5091780;28;20048;-56
2022/09/04 12:43:20;;;;;;;0.60;0.50;;;;;;;28.79;46.05;99298.97;5095152;28;20427;-57
2022/09/04 12:46:09;;;;;;;0.90;0.60;;;;;;;28.78;46.02;99300.22;5083199;28;20045;-64
2022/09/04 12:48:41;;;;;;;0.88;0.60;;;;;;;28.80;45.96;99311.84;5103035;28;20043;-63
2022/09/04 12:51:23;;;;;;;0.95;0.65;;;;;;;28.80;46.13;99309.03;5104192;28;20047;-57
2022/09/04 12:53:48;;;;;;;0.90;0.60;;;;;;;28.82;45.89;99308.59;5109390;28;20093;-56
2022/09/04 12:56:40;;;;;;;0.60;0.40;;;;;;;28.82;46.15;99300.16;5083897;28;20495;-63
2022/09/04 12:59:15;;;;;;;1.05;0.65;;;;;;;28.83;46.02;99301.75;5104333;28;20108;-64